Time;durP1;ratioP1;P1;durP2;ratioP2;P2;SDS_P1;SDS_P2;PMS_P1;PMS_P2;Temp;Humidity;BMP_temperature;BMP_pressure;BME280_temperature;BME280_humidity;BME280_pressure;Samples;Min_cycle;Max_cycle;Signal;HPM_P1;HPM_P2
2023/12/26 00:01:27;;;;;;;36.55;25.55;;;18.20;99.90;;;;;;4950349;29;20526;-73
2023/12/26 00:03:53;;;;;;;43.22;26.95;;;17.40;99.90;;;;;;4950765;29;20133;-74
2023/12/26 00:06:22;;;;;;;41.92;28.58;;;17.90;99.90;;;;;;4950090;29;20145;-74
2023/12/26 00:08:48;;;;;;;44.90;28.23;;;18.00;99.90;;;;;;4949764;29;20481;-73
2023/12/26 00:11:15;;;;;;;43.03;25.83;;;18.10;99.90;;;;;;4950067;29;20050;-73
2023/12/26 00:13:40;;;;;;;45.08;27.92;;;17.70;99.90;;;;;;4950256;29;20049;-74
2023/12/26 00:16:06;;;;;;;36.30;26.98;;;16.60;99.90;;;;;;4933819;29;20043;-74
2023/12/26 00:18:32;;;;;;;46.58;27.25;;;18.10;99.90;;;;;;4949041;28;20138;-74
2023/12/26 00:20:57;;;;;;;37.80;26.98;;;18.40;99.90;;;;;;4933034;29;20043;-73
2023/12/26 00:23:23;;;;;;;49.20;27.13;;;17.60;99.90;;;;;;4949518;29;20390;-74
2023/12/26 00:25:49;;;;;;;45.63;27.83;;;17.50;99.90;;;;;;4948970;29;20071;-74
2023/12/26 00:28:16;;;;;;;47.05;29.08;;;17.00;99.90;;;;;;4949474;29;20058;-74
2023/12/26 00:30:41;;;;;;;44.80;27.33;;;15.90;99.90;;;;;;4949379;29;20047;-72
2023/12/26 00:33:07;;;;;;;48.00;28.13;;;16.00;99.90;;;;;;4949211;29;20505;-74
2023/12/26 00:35:32;;;;;;;37.97;27.92;;;17.00;99.90;;;;;;4948901;29;20050;-74
2023/12/26 00:38:01;;;;;;;40.88;28.10;;;18.80;99.90;;;;;;4949049;29;20038;-73
2023/12/26 00:40:26;;;;;;;44.65;27.60;;;16.80;99.90;;;;;;4948569;29;20040;-74
2023/12/26 00:42:52;;;;;;;45.17;28.92;;;15.90;99.90;;;;;;4949587;29;20040;-73
2023/12/26 00:45:18;;;;;;;55.17;28.77;;;16.60;99.90;;;;;;4949450;29;20188;-73
2023/12/26 00:47:43;;;;;;;49.00;29.92;;;15.80;99.90;;;;;;4934102;29;20178;-73
2023/12/26 00:50:13;;;;;;;45.47;30.40;;;16.60;99.90;;;;;;4949637;29;20043;-74
2023/12/26 00:52:39;;;;;;;49.70;30.52;;;16.70;99.90;;;;;;4948535;29;20046;-74
2023/12/26 00:55:06;;;;;;;44.95;29.65;;;16.00;99.90;;;;;;4948953;29;20498;-74
2023/12/26 00:57:34;;;;;;;48.40;29.85;;;15.90;99.90;;;;;;4932993;29;20043;-74
2023/12/26 01:00:01;;;;;;;49.65;31.02;;;16.10;99.90;;;;;;4949810;28;20039;-74
2023/12/26 01:02:26;;;;;;;53.13;31.08;;;18.10;99.90;;;;;;4948327;29;20047;-73
2023/12/26 01:04:52;;;;;;;49.40;32.63;;;16.50;99.90;;;;;;4947936;29;20477;-73
2023/12/26 01:07:17;;;;;;;54.17;31.90;;;15.50;99.90;;;;;;4947190;29;20512;-72
2023/12/26 01:09:43;;;;;;;50.83;32.28;;;17.90;99.90;;;;;;4947821;29;20540;-73
2023/12/26 01:12:09;;;;;;;51.03;33.15;;;17.30;99.90;;;;;;4948556;29;20167;-73
2023/12/26 01:14:35;;;;;;;54.20;32.97;;;16.10;99.90;;;;;;4948763;29;20058;-73
2023/12/26 01:17:01;;;;;;;46.35;31.58;;;16.30;99.90;;;;;;4948526;29;20043;-74
2023/12/26 01:19:27;;;;;;;42.17;32.28;;;16.20;99.90;;;;;;4948121;28;20063;-73
2023/12/26 01:21:53;;;;;;;43.78;31.92;;;16.10;99.90;;;;;;4947870;29;20081;-74
2023/12/26 01:24:18;;;;;;;45.30;33.10;;;16.60;99.90;;;;;;4948377;29;20047;-73
2023/12/26 01:26:44;;;;;;;49.05;33.83;;;17.30;99.90;;;;;;4948585;29;20549;-74
2023/12/26 01:29:10;;;;;;;50.38;32.97;;;15.80;99.90;;;;;;4948393;29;20043;-73
2023/12/26 01:31:36;;;;;;;46.53;33.03;;;17.90;99.90;;;;;;4948834;29;20524;-73
2023/12/26 01:34:03;;;;;;;43.97;32.42;;;16.10;99.90;;;;;;4948323;29;20051;-73
2023/12/26 01:36:28;;;;;;;50.15;31.65;;;17.90;99.90;;;;;;4948069;29;20057;-73
2023/12/26 01:38:54;;;;;;;52.35;31.67;;;16.50;99.90;;;;;;4932124;29;20049;-73
2023/12/26 01:41:19;;;;;;;45.22;32.05;;;16.30;99.90;;;;;;4947710;29;20039;-73
2023/12/26 01:43:45;;;;;;;47.75;32.45;;;16.10;99.90;;;;;;4931923;29;20027;-73
2023/12/26 01:46:12;;;;;;;49.33;32.85;;;17.80;99.90;;;;;;4948212;29;20051;-73
2023/12/26 01:48:39;;;;;;;45.22;33.78;;;17.40;99.90;;;;;;4948174;29;20080;-73
2023/12/26 01:51:08;;;;;;;42.75;31.67;;;17.80;99.90;;;;;;4947895;29;20051;-73
2023/12/26 01:53:38;;;;;;;46.53;30.85;;;16.80;99.90;;;;;;4947385;28;20055;-73
2023/12/26 01:56:09;;;;;;;40.72;29.88;;;17.60;99.90;;;;;;4947383;29;20077;-72
2023/12/26 01:58:35;;;;;;;36.58;28.23;;;16.90;99.90;;;;;;4948210;29;20047;-72
2023/12/26 02:01:05;;;;;;;44.83;30.25;;;17.50;99.90;;;;;;4947418;29;20039;-72
2023/12/26 02:03:32;;;;;;;42.67;31.23;;;17.10;99.90;;;;;;4947647;29;20564;-72
2023/12/26 02:05:59;;;;;;;43.63;30.80;;;17.40;99.90;;;;;;4948057;29;20479;-71
2023/12/26 02:08:25;;;;;;;43.92;31.92;;;16.20;99.90;;;;;;4938122;29;20058;-71
2023/12/26 02:10:51;;;;;;;40.92;31.63;;;17.60;99.90;;;;;;4947010;28;20437;-72
2023/12/26 02:13:16;;;;;;;40.55;30.95;;;17.40;99.90;;;;;;4931535;29;20107;-73
2023/12/26 02:15:42;;;;;;;37.47;28.83;;;16.10;99.90;;;;;;4947851;29;20102;-72
2023/12/26 02:18:09;;;;;;;41.50;28.85;;;17.30;99.90;;;;;;4947016;28;20130;-72
2023/12/26 02:20:35;;;;;;;40.10;29.15;;;16.20;99.90;;;;;;4947244;29;20055;-72
2023/12/26 02:23:00;;;;;;;40.75;29.90;;;16.40;99.90;;;;;;4946866;29;20041;-71
2023/12/26 02:25:26;;;;;;;48.95;31.90;;;16.10;99.90;;;;;;4947513;29;20038;-72
2023/12/26 02:27:52;;;;;;;40.47;29.42;;;17.00;99.90;;;;;;4944758;29;20503;-72
2023/12/26 02:30:18;;;;;;;36.45;28.23;;;16.20;99.90;;;;;;4926255;29;20398;-72
2023/12/26 02:32:46;;;;;;;38.47;28.20;;;16.00;99.90;;;;;;4946285;29;20311;-72
2023/12/26 02:35:13;;;;;;;39.63;28.45;;;16.20;99.90;;;;;;4947215;29;20501;-72
2023/12/26 02:37:39;;;;;;;45.80;30.13;;;16.90;99.90;;;;;;4947365;29;20139;-71
2023/12/26 02:40:05;;;;;;;32.30;28.17;;;17.00;99.90;;;;;;4946811;29;20047;-73
2023/12/26 02:42:31;;;;;;;39.75;26.80;;;15.90;99.90;;;;;;4946696;29;20524;-72
2023/12/26 02:44:57;;;;;;;38.05;26.75;;;16.00;99.90;;;;;;4946923;29;20051;-73
2023/12/26 02:47:23;;;;;;;38.05;27.27;;;15.90;99.90;;;;;;4947057;29;20042;-73
2023/12/26 02:49:49;;;;;;;38.65;25.67;;;16.50;99.90;;;;;;4946579;29;20489;-73
2023/12/26 02:52:15;;;;;;;39.45;25.63;;;16.90;99.90;;;;;;4946535;29;20039;-72
2023/12/26 02:54:40;;;;;;;41.85;25.10;;;15.90;99.90;;;;;;4930826;29;20452;-72
2023/12/26 02:57:06;;;;;;;38.25;24.90;;;16.90;99.90;;;;;;4947280;29;20502;-73
2023/12/26 02:59:31;;;;;;;41.08;25.88;;;16.80;99.90;;;;;;4946464;29;20050;-72
2023/12/26 03:02:00;;;;;;;47.63;25.25;;;16.70;99.90;;;;;;4946754;29;20122;-72
2023/12/26 03:04:26;;;;;;;45.15;26.02;;;16.80;99.90;;;;;;4946746;29;20047;-73
2023/12/26 03:06:52;;;;;;;41.05;24.63;;;16.90;99.90;;;;;;4946854;29;20089;-73
2023/12/26 03:09:18;;;;;;;39.65;24.63;;;15.70;99.90;;;;;;4946535;29;20062;-73
2023/12/26 03:11:44;;;;;;;42.00;25.50;;;16.70;99.90;;;;;;4930453;29;20549;-73
2023/12/26 03:14:11;;;;;;;36.13;23.55;;;16.50;99.90;;;;;;4946198;29;20532;-72
2023/12/26 03:16:37;;;;;;;39.03;24.13;;;16.20;99.90;;;;;;4946201;29;20051;-73
2023/12/26 03:19:03;;;;;;;42.22;24.95;;;15.90;99.90;;;;;;4945747;28;20062;-73
2023/12/26 03:21:28;;;;;;;44.35;25.17;;;16.50;99.90;;;;;;4947453;29;20502;-72
2023/12/26 03:23:54;;;;;;;44.50;26.33;;;16.10;99.90;;;;;;4945267;28;20058;-72
2023/12/26 03:26:19;;;;;;;38.65;25.25;;;16.10;99.90;;;;;;4946092;29;20124;-72
2023/12/26 03:28:45;;;;;;;42.17;25.27;;;16.50;99.90;;;;;;4945989;29;20047;-73
2023/12/26 03:31:10;;;;;;;45.50;25.05;;;16.00;1.00;;;;;;4930173;29;20054;-72
2023/12/26 03:33:36;;;;;;;38.60;24.23;;;15.80;1.00;;;;;;4946261;29;20128;-72
2023/12/26 03:36:06;;;;;;;43.35;26.52;;;16.10;99.90;;;;;;4946332;29;20158;-72
2023/12/26 03:38:32;;;;;;;39.35;24.95;;;16.10;99.90;;;;;;4946142;29;20047;-72
2023/12/26 03:40:57;;;;;;;48.40;28.02;;;16.30;99.90;;;;;;4946487;29;20054;-73
2023/12/26 03:43:23;;;;;;;44.25;26.58;;;17.10;99.90;;;;;;4945642;29;20055;-72
2023/12/26 03:45:50;;;;;;;42.53;26.13;;;15.70;99.90;;;;;;4949677;28;20536;-72
2023/12/26 03:48:16;;;;;;;41.05;27.08;;;15.90;99.90;;;;;;4945965;29;20505;-73
2023/12/26 03:50:41;;;;;;;46.53;27.10;;;15.90;77.80;;;;;;4945526;29;20059;-72
2023/12/26 03:53:07;;;;;;;42.15;26.40;;;15.70;20.90;;;;;;4945762;29;20535;-73
2023/12/26 03:55:33;;;;;;;46.95;26.30;;;16.10;34.80;;;;;;4946071;29;20054;-72
2023/12/26 03:57:59;;;;;;;40.33;26.25;;;16.50;5.30;;;;;;4945939;29;20039;-71
2023/12/26 04:00:24;;;;;;;42.10;26.92;;;16.50;5.20;;;;;;4945809;29;20110;-72
2023/12/26 04:02:50;;;;;;;43.40;27.85;;;16.60;4.60;;;;;;4938893;29;20039;-71
2023/12/26 04:05:16;;;;;;;40.95;26.70;;;16.30;1.20;;;;;;4926838;29;20443;-72
2023/12/26 04:07:41;;;;;;;42.97;25.77;;;16.50;1.00;;;;;;4937320;29;20409;-72
2023/12/26 04:10:08;;;;;;;41.15;28.25;;;16.60;1.00;;;;;;4927180;29;20043;-72
2023/12/26 04:12:34;;;;;;;37.70;27.92;;;15.80;1.00;;;;;;4943674;29;20464;-72
2023/12/26 04:15:00;;;;;;;41.85;27.80;;;16.50;1.00;;;;;;4946051;29;20043;-72
2023/12/26 04:17:26;;;;;;;41.60;27.20;;;16.00;1.00;;;;;;4942951;29;20052;-72
2023/12/26 04:19:51;;;;;;;42.42;26.88;;;16.20;1.00;;;;;;4945803;29;20090;-72
2023/12/26 04:22:17;;;;;;;39.70;27.80;;;15.70;1.00;;;;;;4945664;29;20047;-72
2023/12/26 04:24:43;;;;;;;43.83;27.33;;;16.00;3.60;;;;;;4946275;29;20425;-71
2023/12/26 04:27:08;;;;;;;37.38;26.35;;;16.50;1.00;;;;;;4945660;29;20043;-72
2023/12/26 04:29:34;;;;;;;44.30;27.83;;;16.80;1.00;;;;;;4945375;29;20058;-72
2023/12/26 04:31:59;;;;;;;41.30;27.70;;;16.40;1.00;;;;;;4945500;29;20051;-71
2023/12/26 04:34:25;;;;;;;42.90;27.40;;;15.70;99.90;;;;;;4945978;28;20043;-72
2023/12/26 04:36:51;;;;;;;42.17;27.80;;;15.80;99.90;;;;;;4949054;29;20046;-73
2023/12/26 04:39:17;;;;;;;45.15;29.42;;;16.60;1.00;;;;;;4949836;29;20138;-72
2023/12/26 04:41:42;;;;;;;45.67;28.90;;;16.30;1.00;;;;;;4949509;29;20393;-72
2023/12/26 04:44:08;;;;;;;41.58;28.08;;;16.10;1.00;;;;;;4949130;29;20130;-72
2023/12/26 04:46:33;;;;;;;35.95;27.42;;;16.40;1.00;;;;;;4948509;29;20077;-72
2023/12/26 04:48:59;;;;;;;45.45;29.80;;;16.70;25.00;;;;;;4949797;29;20075;-72
2023/12/26 04:51:28;;;;;;;39.13;29.50;;;16.60;86.90;;;;;;4948736;29;20054;-73
2023/12/26 04:53:54;;;;;;;43.15;31.23;;;16.00;99.90;;;;;;4949172;29;20458;-72
2023/12/26 04:56:20;;;;;;;43.08;30.85;;;16.40;99.90;;;;;;4949038;29;20049;-72
2023/12/26 04:58:47;;;;;;;42.65;31.73;;;16.80;99.90;;;;;;4933182;29;20126;-73
2023/12/26 05:01:17;;;;;;;45.20;28.65;;;16.00;99.90;;;;;;4948469;29;20039;-72
2023/12/26 05:03:44;;;;;;;38.90;29.20;;;16.00;99.90;;;;;;4948245;29;20522;-72
2023/12/26 05:06:09;;;;;;;42.75;30.88;;;15.90;99.90;;;;;;4948283;29;20110;-72
2023/12/26 05:08:39;;;;;;;44.58;29.70;;;16.40;99.90;;;;;;4948807;29;20051;-72
2023/12/26 05:11:06;;;;;;;50.28;29.75;;;17.10;99.90;;;;;;4948712;29;20054;-72
2023/12/26 05:13:32;;;;;;;40.65;29.25;;;15.90;99.90;;;;;;4948639;29;20159;-71
2023/12/26 05:16:04;;;;;;;36.65;29.38;;;16.90;99.90;;;;;;4949046;28;20051;-72
2023/12/26 05:18:30;;;;;;;44.33;28.58;;;16.00;99.90;;;;;;4947831;28;20464;-73
2023/12/26 05:20:56;;;;;;;43.92;29.17;;;15.90;99.90;;;;;;4947973;29;20843;-72
2023/12/26 05:23:21;;;;;;;44.50;27.05;;;16.60;99.90;;;;;;4948266;29;20584;-72
2023/12/26 05:25:47;;;;;;;43.90;29.65;;;16.20;99.90;;;;;;4948949;29;20386;-72
2023/12/26 05:28:13;;;;;;;46.00;30.48;;;16.60;99.90;;;;;;4948855;29;20321;-72
2023/12/26 05:30:38;;;;;;;43.25;30.10;;;16.10;99.90;;;;;;4948781;29;20047;-72
2023/12/26 05:33:04;;;;;;;42.83;29.60;;;15.70;99.90;;;;;;4947583;29;20163;-72
2023/12/26 05:35:30;;;;;;;42.08;29.70;;;16.00;74.90;;;;;;4947969;29;20129;-72
2023/12/26 05:37:55;;;;;;;41.47;27.67;;;16.40;74.30;;;;;;4948173;29;20166;-72
2023/12/26 05:40:21;;;;;;;43.45;27.48;;;16.40;13.20;;;;;;4948743;29;20049;-71
2023/12/26 05:42:47;;;;;;;47.10;28.90;;;16.10;1.00;;;;;;4948648;29;20043;-72
2023/12/26 05:45:13;;;;;;;48.75;29.48;;;15.70;16.90;;;;;;4932685;28;20432;-72
2023/12/26 05:47:39;;;;;;;44.20;28.52;;;15.70;7.20;;;;;;4947398;29;20043;-72
2023/12/26 05:50:05;;;;;;;45.00;28.42;;;15.70;25.80;;;;;;4947692;29;20142;-72
2023/12/26 05:52:31;;;;;;;46.83;28.77;;;16.40;39.10;;;;;;4947880;29;20429;-73
2023/12/26 05:54:56;;;;;;;51.83;32.60;;;15.60;18.40;;;;;;4947625;29;20043;-72
2023/12/26 05:57:22;;;;;;;41.33;29.80;;;15.70;57.10;;;;;;4947637;29;20047;-72
2023/12/26 05:59:47;;;;;;;45.58;29.83;;;16.00;36.80;;;;;;4948217;29;20042;-72
2023/12/26 06:02:13;;;;;;;51.65;29.80;;;15.50;55.50;;;;;;4947433;29;20042;-72
2023/12/26 06:04:38;;;;;;;50.22;31.83;;;16.10;99.90;;;;;;4947602;29;20046;-72
2023/12/26 06:07:04;;;;;;;47.45;29.83;;;15.50;99.90;;;;;;4947794;28;20130;-72
2023/12/26 06:09:30;;;;;;;52.25;30.92;;;15.30;99.90;;;;;;4931995;29;20840;-72
2023/12/26 06:11:55;;;;;;;49.65;32.60;;;15.30;99.90;;;;;;4947793;29;20074;-72
2023/12/26 06:14:22;;;;;;;42.42;27.65;;;15.40;99.90;;;;;;4948044;29;20055;-72
2023/12/26 06:16:48;;;;;;;46.53;29.20;;;16.00;99.90;;;;;;4947227;29;20494;-72
2023/12/26 06:19:13;;;;;;;41.45;27.30;;;15.50;99.90;;;;;;4946825;28;20126;-72
2023/12/26 06:21:39;;;;;;;50.10;29.95;;;15.50;99.90;;;;;;4943296;29;20410;-72
2023/12/26 06:24:04;;;;;;;46.40;31.30;;;16.50;99.90;;;;;;4945231;29;20162;-72
2023/12/26 06:26:30;;;;;;;46.53;28.70;;;16.10;99.90;;;;;;4947208;29;20051;-73
2023/12/26 06:28:55;;;;;;;35.42;25.00;;;15.70;99.90;;;;;;4944753;29;20098;-72
2023/12/26 06:31:21;;;;;;;50.78;30.42;;;15.50;99.90;;;;;;4945289;29;20121;-72
2023/12/26 06:33:47;;;;;;;52.40;30.38;;;15.40;99.90;;;;;;4949642;28;20074;-72
2023/12/26 06:36:12;;;;;;;56.83;31.27;;;16.90;99.90;;;;;;4946311;29;20047;-72
2023/12/26 06:38:38;;;;;;;45.67;30.50;;;15.50;99.90;;;;;;4943086;29;20050;-73
2023/12/26 06:41:04;;;;;;;47.88;28.73;;;16.10;99.90;;;;;;4945899;29;20477;-72
2023/12/26 06:43:30;;;;;;;46.63;29.27;;;15.30;99.90;;;;;;4946534;29;20047;-73
2023/12/26 06:45:56;;;;;;;46.50;29.25;;;16.10;99.90;;;;;;4945964;29;20050;-73
2023/12/26 06:48:22;;;;;;;48.67;28.83;;;15.70;99.90;;;;;;4946416;29;20158;-73
2023/12/26 06:50:48;;;;;;;45.60;28.73;;;15.30;99.90;;;;;;4930213;29;20125;-72
2023/12/26 06:53:14;;;;;;;43.22;27.63;;;16.20;99.90;;;;;;4942562;28;20090;-72
2023/12/26 06:55:40;;;;;;;48.47;29.30;;;16.20;99.90;;;;;;4946467;29;20051;-71
2023/12/26 06:58:05;;;;;;;52.85;28.58;;;15.60;99.90;;;;;;4945664;28;20047;-73
2023/12/26 07:00:31;;;;;;;47.25;28.95;;;15.40;99.90;;;;;;4945529;29;20369;-72
2023/12/26 07:02:57;;;;;;;44.83;29.70;;;16.00;99.90;;;;;;4944372;29;20078;-72
2023/12/26 07:05:22;;;;;;;48.05;27.80;;;16.10;99.90;;;;;;4929963;29;20039;-72
2023/12/26 07:07:48;;;;;;;45.13;30.40;;;15.70;99.90;;;;;;4945562;29;20390;-73
2023/12/26 07:10:14;;;;;;;40.63;28.63;;;15.20;99.90;;;;;;4928501;29;20038;-73
2023/12/26 07:12:39;;;;;;;46.58;27.15;;;15.60;99.90;;;;;;4946467;29;20043;-72
2023/12/26 07:15:05;;;;;;;53.92;30.15;;;15.40;99.90;;;;;;4945336;29;20583;-72
2023/12/26 07:17:32;;;;;;;49.42;30.20;;;15.30;99.90;;;;;;4944476;28;20047;-72
2023/12/26 07:19:58;;;;;;;48.75;29.27;;;16.10;99.90;;;;;;4942309;29;20126;-72
2023/12/26 07:22:23;;;;;;;47.33;31.67;;;15.30;99.90;;;;;;4946018;29;20130;-72
2023/12/26 07:24:49;;;;;;;48.63;31.23;;;16.00;99.90;;;;;;4945822;29;20050;-72
2023/12/26 07:27:14;;;;;;;50.70;30.58;;;15.60;99.90;;;;;;4946855;28;20077;-73
2023/12/26 07:29:40;;;;;;;38.90;27.08;;;15.10;99.90;;;;;;4945270;29;20051;-72
2023/12/26 07:32:06;;;;;;;49.45;31.40;;;15.50;1.00;;;;;;4945354;29;20043;-74
2023/12/26 07:34:31;;;;;;;49.75;31.77;;;16.00;1.00;;;;;;4945810;29;20445;-73
2023/12/26 07:36:57;;;;;;;48.10;31.17;;;15.80;1.00;;;;;;4944739;29;20215;-70
2023/12/26 07:39:22;;;;;;;50.00;32.35;;;15.00;1.00;;;;;;4945327;29;20130;-70
2023/12/26 07:41:48;;;;;;;49.92;30.45;;;15.20;1.00;;;;;;4945232;29;20035;-72
2023/12/26 07:44:14;;;;;;;48.90;30.10;;;15.50;1.00;;;;;;4945254;29;20453;-72
2023/12/26 07:46:39;;;;;;;45.58;28.80;;;15.20;1.00;;;;;;4945788;29;20039;-72
2023/12/26 07:49:06;;;;;;;47.55;29.98;;;15.30;13.80;;;;;;4945192;29;20102;-72
2023/12/26 07:51:32;;;;;;;50.15;31.63;;;15.80;40.10;;;;;;4945265;29;20059;-72
2023/12/26 07:53:59;;;;;;;47.30;30.27;;;16.20;54.50;;;;;;4944151;29;20079;-72
2023/12/26 07:56:25;;;;;;;56.05;30.85;;;15.40;22.20;;;;;;4941086;29;20047;-71
2023/12/26 07:58:52;;;;;;;55.80;33.20;;;16.40;19.40;;;;;;4934329;29;20047;-72
2023/12/26 08:01:18;;;;;;;50.95;32.95;;;16.10;16.00;;;;;;4939208;29;20512;-72
2023/12/26 08:03:44;;;;;;;50.15;33.92;;;15.40;1.00;;;;;;4944340;29;20043;-72
2023/12/26 08:06:09;;;;;;;51.33;34.42;;;15.30;1.00;;;;;;4943311;29;20659;-71
2023/12/26 08:08:35;;;;;;;57.15;32.40;;;16.20;1.00;;;;;;4943767;28;20047;-73
2023/12/26 08:11:00;;;;;;;50.10;30.92;;;16.00;1.00;;;;;;4947359;29;20465;-72
2023/12/26 08:13:26;;;;;;;47.28;27.42;;;15.60;1.00;;;;;;4949530;29;20039;-72
2023/12/26 08:15:51;;;;;;;47.85;28.60;;;16.20;1.00;;;;;;4948108;28;20126;-72
2023/12/26 08:18:17;;;;;;;44.53;27.95;;;15.40;99.90;;;;;;4943370;29;20093;-72
2023/12/26 08:20:43;;;;;;;47.28;27.67;;;16.30;99.90;;;;;;4949302;29;20058;-71
2023/12/26 08:23:08;;;;;;;44.75;27.20;;;15.70;99.90;;;;;;4948694;29;20039;-72
2023/12/26 08:25:34;;;;;;;42.83;26.95;;;15.90;99.90;;;;;;4947364;29;20043;-72
2023/12/26 08:28:01;;;;;;;42.47;27.80;;;15.80;40.60;;;;;;4948782;29;20170;-72
2023/12/26 08:30:26;;;;;;;43.83;27.85;;;16.00;1.00;;;;;;4949939;29;20042;-72
2023/12/26 08:32:52;;;;;;;53.90;30.67;;;15.60;1.00;;;;;;4949999;29;20047;-72
2023/12/26 08:35:17;;;;;;;51.63;29.30;;;15.40;1.00;;;;;;4949039;29;20047;-71
2023/12/26 08:37:43;;;;;;;43.67;28.35;;;16.10;1.00;;;;;;4932103;29;20147;-72
2023/12/26 08:40:08;;;;;;;42.03;30.88;;;15.40;1.00;;;;;;4949536;29;20051;-72
2023/12/26 08:42:34;;;;;;;49.45;29.00;;;15.50;1.00;;;;;;4947852;29;20039;-72
2023/12/26 08:44:59;;;;;;;47.60;29.50;;;16.00;1.00;;;;;;4948679;29;20040;-72
2023/12/26 08:47:25;;;;;;;44.67;28.52;;;15.50;15.90;;;;;;4948364;29;20069;-72
2023/12/26 08:49:50;;;;;;;44.28;27.30;;;15.40;1.00;;;;;;4932793;29;20090;-72
2023/12/26 08:52:16;;;;;;;43.20;28.25;;;16.10;1.00;;;;;;4945962;29;20047;-69
2023/12/26 08:54:43;;;;;;;42.38;27.15;;;15.40;1.00;;;;;;4944226;29;20051;-69
2023/12/26 08:57:08;;;;;;;43.28;26.42;;;15.60;1.00;;;;;;4948097;29;20612;-69
2023/12/26 08:59:34;;;;;;;46.08;28.75;;;15.40;1.00;;;;;;4946023;28;20035;-69
2023/12/26 09:02:00;;;;;;;48.35;27.15;;;16.20;1.00;;;;;;4948658;29;20133;-69
2023/12/26 09:04:26;;;;;;;48.17;27.83;;;16.10;1.00;;;;;;4950610;29;20122;-69
2023/12/26 09:06:55;;;;;;;41.50;25.55;;;15.70;1.00;;;;;;4950154;28;20052;-67
2023/12/26 09:09:20;;;;;;;47.72;26.75;;;15.80;99.90;;;;;;4943996;28;20122;-69
2023/12/26 09:11:46;;;;;;;47.80;28.27;;;15.80;1.00;;;;;;4950236;28;20672;-69
2023/12/26 09:14:13;;;;;;;45.22;27.17;;;16.30;99.90;;;;;;4947872;29;20058;-73
2023/12/26 09:16:39;;;;;;;50.58;25.83;;;15.60;99.90;;;;;;4947122;29;20073;-73
2023/12/26 09:19:05;;;;;;;48.70;25.77;;;16.70;99.90;;;;;;4947088;29;20059;-71
2023/12/26 09:21:31;;;;;;;39.95;26.20;;;15.60;99.90;;;;;;4948339;28;20490;-71
2023/12/26 09:23:56;;;;;;;41.00;25.42;;;15.90;99.90;;;;;;4947681;29;20039;-73
2023/12/26 09:26:22;;;;;;;51.83;26.42;;;16.50;99.90;;;;;;4946163;29;20090;-73
2023/12/26 09:28:49;;;;;;;38.08;23.85;;;16.50;51.70;;;;;;4948087;29;20047;-74
2023/12/26 09:31:15;;;;;;;46.97;27.42;;;15.90;1.00;;;;;;4947373;29;20078;-74
2023/12/26 09:33:40;;;;;;;42.20;26.73;;;16.80;1.00;;;;;;4945019;29;20081;-75
2023/12/26 09:36:06;;;;;;;49.08;27.95;;;16.40;1.00;;;;;;4947999;29;20580;-74
2023/12/26 09:38:32;;;;;;;57.60;28.38;;;15.70;1.00;;;;;;4947405;29;20055;-70
2023/12/26 09:40:57;;;;;;;45.80;26.55;;;15.90;1.00;;;;;;4947738;29;20069;-71
2023/12/26 09:43:23;;;;;;;47.42;27.23;;;16.50;1.00;;;;;;4948173;28;20039;-73
2023/12/26 09:45:48;;;;;;;42.60;25.75;;;16.40;1.00;;;;;;4947523;29;20035;-70
2023/12/26 09:48:15;;;;;;;51.53;27.08;;;16.50;99.90;;;;;;4947270;29;20035;-72
2023/12/26 09:50:42;;;;;;;49.75;28.30;;;15.80;1.00;;;;;;4947240;29;20043;-72
2023/12/26 09:53:09;;;;;;;43.00;25.40;;;16.30;1.00;;;;;;4947566;29;20078;-70
2023/12/26 09:55:35;;;;;;;44.75;26.33;;;16.50;1.00;;;;;;4946735;29;20054;-72
2023/12/26 09:58:02;;;;;;;48.08;27.35;;;15.70;1.00;;;;;;4947496;28;20102;-73
2023/12/26 10:00:29;;;;;;;46.15;25.52;;;16.40;1.00;;;;;;4947350;29;20039;-71
2023/12/26 10:02:55;;;;;;;47.22;27.15;;;16.20;1.00;;;;;;4947336;29;20047;-74
2023/12/26 10:05:21;;;;;;;45.90;27.10;;;16.60;1.00;;;;;;4948266;29;20043;-73
2023/12/26 10:07:47;;;;;;;54.53;27.40;;;16.60;1.00;;;;;;4947254;29;20115;-71
2023/12/26 10:10:20;;;;;;;48.53;27.33;;;16.10;1.00;;;;;;4945509;29;20086;-72
2023/12/26 10:12:49;;;;;;;44.80;26.67;;;16.00;1.00;;;;;;4946778;29;20414;-71
2023/12/26 10:15:16;;;;;;;41.30;26.65;;;15.90;1.00;;;;;;4947808;29;20139;-71
2023/12/26 10:17:43;;;;;;;47.35;27.13;;;16.30;1.00;;;;;;4946703;28;20055;-72
2023/12/26 10:20:18;;;;;;;45.25;27.13;;;16.60;1.00;;;;;;4947698;29;20556;-71
2023/12/26 10:22:44;;;;;;;45.47;26.55;;;16.70;1.00;;;;;;4947593;29;20134;-71
2023/12/26 10:25:11;;;;;;;43.78;26.05;;;16.60;1.00;;;;;;4947223;29;20449;-72
2023/12/26 10:27:38;;;;;;;45.65;26.23;;;16.50;1.00;;;;;;4947408;29;20055;-73
2023/12/26 10:30:04;;;;;;;46.42;26.92;;;16.20;1.00;;;;;;4947624;29;20051;-70
2023/12/26 10:32:30;;;;;;;44.05;27.23;;;16.70;1.00;;;;;;4948712;28;20863;-70
2023/12/26 10:35:10;;;;;;;51.85;29.15;;;16.70;1.00;;;;;;4947684;29;20078;-74
2023/12/26 10:37:36;;;;;;;50.55;28.05;;;17.00;1.00;;;;;;4945639;29;20572;-70
2023/12/26 10:40:04;;;;;;;47.92;29.10;;;16.00;8.10;;;;;;4938320;29;20039;-72
2023/12/26 10:42:31;;;;;;;48.00;29.80;;;15.90;1.00;;;;;;4928181;29;20043;-71
2023/12/26 10:45:00;;;;;;;47.90;28.88;;;16.30;35.50;;;;;;4939672;29;20043;-70
2023/12/26 10:47:30;;;;;;;48.30;28.70;;;16.10;93.30;;;;;;4946168;28;20153;-72
2023/12/26 10:49:59;;;;;;;53.42;28.45;;;16.20;99.90;;;;;;4946946;29;20089;-72
2023/12/26 10:52:29;;;;;;;48.83;29.35;;;15.90;99.90;;;;;;4946588;29;20228;-69
2023/12/26 10:55:00;;;;;;;50.45;28.67;;;15.80;99.90;;;;;;4912144;29;20598;-69
2023/12/26 10:57:29;;;;;;;45.85;28.25;;;16.70;99.90;;;;;;4944249;29;20150;-70
2023/12/26 10:59:55;;;;;;;47.08;29.00;;;15.80;99.90;;;;;;4946653;29;20122;-71
2023/12/26 11:02:20;;;;;;;47.78;29.00;;;15.90;99.90;;;;;;4947199;29;20043;-72
2023/12/26 11:04:47;;;;;;;42.60;27.13;;;16.30;99.90;;;;;;4930985;29;20747;-76
2023/12/26 11:07:13;;;;;;;47.15;27.70;;;16.90;99.90;;;;;;4948572;28;20134;-73
2023/12/26 11:09:40;;;;;;;49.38;27.02;;;16.70;99.90;;;;;;4946724;29;21147;-74
2023/12/26 11:12:05;;;;;;;50.17;28.20;;;16.00;99.90;;;;;;4950898;29;20122;-73
2023/12/26 11:14:31;;;;;;;42.45;27.98;;;16.80;99.90;;;;;;4945512;29;20139;-76
2023/12/26 11:16:57;;;;;;;52.58;28.23;;;16.40;99.90;;;;;;4944650;29;20098;-75
2023/12/26 11:19:22;;;;;;;50.00;28.75;;;16.70;99.90;;;;;;4945689;28;20059;-76
2023/12/26 11:21:48;;;;;;;47.70;27.77;;;16.30;99.90;;;;;;4943065;29;20039;-75
2023/12/26 11:24:15;;;;;;;51.88;27.40;;;16.70;99.90;;;;;;4945926;28;20478;-75
2023/12/26 11:26:40;;;;;;;46.05;26.55;;;16.10;99.90;;;;;;4941512;29;20186;-76
2023/12/26 11:29:07;;;;;;;44.88;27.33;;;16.00;99.90;;;;;;4939601;29;20051;-75
2023/12/26 11:31:37;;;;;;;54.03;28.77;;;16.70;99.90;;;;;;4947264;29;20039;-75
2023/12/26 11:34:07;;;;;;;44.00;27.55;;;16.80;99.90;;;;;;4930940;29;20043;-75
2023/12/26 11:36:32;;;;;;;44.17;27.75;;;16.50;99.90;;;;;;4946535;29;20051;-74
2023/12/26 11:38:58;;;;;;;51.92;29.30;;;16.10;99.90;;;;;;4946409;29;20046;-76
2023/12/26 11:41:23;;;;;;;47.70;28.65;;;17.60;99.90;;;;;;4946812;29;20070;-77
2023/12/26 11:43:49;;;;;;;49.88;27.85;;;16.10;99.90;;;;;;4945597;28;20050;-77
2023/12/26 11:46:15;;;;;;;47.35;26.40;;;16.80;99.90;;;;;;4945112;29;20051;-77
2023/12/26 11:48:40;;;;;;;51.42;28.15;;;16.70;99.90;;;;;;4930217;29;20058;-76
2023/12/26 11:51:06;;;;;;;47.53;29.00;;;16.70;1.00;;;;;;4929526;29;20046;-74
2023/12/26 11:53:32;;;;;;;51.97;28.92;;;16.60;1.00;;;;;;4946522;29;20481;-76
2023/12/26 11:55:58;;;;;;;44.78;27.30;;;16.00;1.00;;;;;;4945820;29;20478;-74
2023/12/26 11:58:23;;;;;;;44.30;26.50;;;17.80;1.00;;;;;;4946877;29;20046;-74
2023/12/26 12:00:49;;;;;;;45.97;27.83;;;16.60;1.00;;;;;;4946492;28;20040;-76
2023/12/26 12:03:14;;;;;;;46.17;30.05;;;15.80;1.00;;;;;;4930082;29;20047;-76
2023/12/26 12:05:40;;;;;;;48.60;30.15;;;16.20;84.20;;;;;;4945366;29;20388;-77
2023/12/26 12:08:12;;;;;;;44.00;29.70;;;16.80;99.90;;;;;;4946197;29;20046;-74
2023/12/26 12:11:07;;;;;;;39.42;30.33;;;16.20;99.90;;;;;;4941659;29;20051;-76
2023/12/26 12:13:33;;;;;;;43.00;28.95;;;16.30;99.90;;;;;;4957219;28;20050;-76
2023/12/26 12:15:58;;;;;;;32.95;28.50;;;16.70;1.00;;;;;;4945172;29;20138;-76
2023/12/26 12:18:24;;;;;;;39.45;29.77;;;18.60;1.00;;;;;;4945501;28;20063;-76
2023/12/26 12:20:50;;;;;;;30.65;24.00;;;16.00;60.40;;;;;;4928177;29;20071;-77
2023/12/26 12:23:15;;;;;;;29.73;24.00;;;16.10;80.30;;;;;;4945784;29;20042;-76
2023/12/26 12:25:41;;;;;;;27.83;22.38;;;15.20;41.10;;;;;;4944887;28;20094;-77